sensor_id;sensor_type;location;lat;lon;timestamp;pressure;altitude;pressure_sealevel;temperature;humidity
27334;BME280;14817;57.104;-2.094;2023-03-16T00:01:42;99481.59;;;3.05;100.00
27334;BME280;14817;57.104;-2.094;2023-03-16T00:04:09;99471.22;;;3.14;100.00
27334;BME280;14817;57.104;-2.094;2023-03-16T00:06:36;99480.09;;;3.13;100.00
27334;BME280;14817;57.104;-2.094;2023-03-16T00:09:03;99483.72;;;3.12;100.00
27334;BME280;14817;57.104;-2.094;2023-03-16T00:11:30;99473.84;;;3.14;100.00
27334;BME280;14817;57.104;-2.094;2023-03-16T00:13:56;99460.34;;;3.17;100.00
27334;BME280;14817;57.104;-2.094;2023-03-16T00:16:24;99468.28;;;3.17;100.00
27334;BME280;14817;57.104;-2.094;2023-03-16T00:18:51;99463.13;;;3.15;100.00
27334;BME280;14817;57.104;-2.094;2023-03-16T00:21:17;99468.56;;;3.14;100.00
27334;BME280;14817;57.104;-2.094;2023-03-16T00:23:44;99461.06;;;3.19;100.00
27334;BME280;14817;57.104;-2.094;2023-03-16T00:26:11;99452.28;;;3.18;100.00
27334;BME280;14817;57.104;-2.094;2023-03-16T00:28:38;99443.97;;;3.23;100.00
27334;BME280;14817;57.104;-2.094;2023-03-16T00:31:10;99449.13;;;3.24;100.00
27334;BME280;14817;57.104;-2.094;2023-03-16T00:33:38;99445.22;;;3.28;100.00
27334;BME280;14817;57.104;-2.094;2023-03-16T00:36:05;99443.28;;;3.31;100.00
27334;BME280;14817;57.104;-2.094;2023-03-16T00:38:36;99428.69;;;3.36;100.00
27334;BME280;14817;57.104;-2.094;2023-03-16T00:41:06;99423.16;;;3.39;100.00
27334;BME280;14817;57.104;-2.094;2023-03-16T00:43:35;99417.84;;;3.39;100.00
27334;BME280;14817;57.104;-2.094;2023-03-16T00:46:13;99411.03;;;3.46;100.00
27334;BME280;14817;57.104;-2.094;2023-03-16T00:48:44;99402.56;;;3.53;100.00
27334;BME280;14817;57.104;-2.094;2023-03-16T00:51:16;99384.47;;;3.58;100.00
27334;BME280;14817;57.104;-2.094;2023-03-16T00:53:44;99385.44;;;3.66;100.00
27334;BME280;14817;57.104;-2.094;2023-03-16T00:56:11;99392.56;;;3.66;100.00
27334;BME280;14817;57.104;-2.094;2023-03-16T00:58:40;99387.84;;;3.70;100.00
27334;BME280;14817;57.104;-2.094;2023-03-16T01:01:12;99383.38;;;3.70;100.00
27334;BME280;14817;57.104;-2.094;2023-03-16T01:03:40;99370.97;;;3.71;100.00
27334;BME280;14817;57.104;-2.094;2023-03-16T01:06:12;99362.75;;;3.74;100.00
27334;BME280;14817;57.104;-2.094;2023-03-16T01:08:40;99364.00;;;3.79;100.00
27334;BME280;14817;57.104;-2.094;2023-03-16T01:11:11;99349.66;;;3.82;100.00
27334;BME280;14817;57.104;-2.094;2023-03-16T01:13:38;99331.28;;;3.80;100.00
27334;BME280;14817;57.104;-2.094;2023-03-16T01:16:08;99329.31;;;3.82;100.00
27334;BME280;14817;57.104;-2.094;2023-03-16T01:18:35;99312.31;;;3.85;100.00
27334;BME280;14817;57.104;-2.094;2023-03-16T01:21:03;99308.53;;;3.87;100.00
27334;BME280;14817;57.104;-2.094;2023-03-16T01:23:32;99305.06;;;3.87;100.00
27334;BME280;14817;57.104;-2.094;2023-03-16T01:26:00;99286.22;;;3.90;100.00
27334;BME280;14817;57.104;-2.094;2023-03-16T01:28:29;99269.66;;;3.88;100.00
27334;BME280;14817;57.104;-2.094;2023-03-16T01:31:03;99266.03;;;3.89;100.00
27334;BME280;14817;57.104;-2.094;2023-03-16T01:33:32;99254.72;;;3.97;100.00
27334;BME280;14817;57.104;-2.094;2023-03-16T01:36:05;99242.59;;;3.94;100.00
27334;BME280;14817;57.104;-2.094;2023-03-16T01:38:40;99244.00;;;3.98;100.00
27334;BME280;14817;57.104;-2.094;2023-03-16T01:41:08;99238.13;;;3.95;100.00
27334;BME280;14817;57.104;-2.094;2023-03-16T01:43:38;99244.41;;;3.94;100.00
27334;BME280;14817;57.104;-2.094;2023-03-16T01:48:54;99237.88;;;3.98;100.00
27334;BME280;14817;57.104;-2.094;2023-03-16T01:53:55;99224.31;;;4.01;100.00
27334;BME280;14817;57.104;-2.094;2023-03-16T01:56:30;99211.06;;;4.01;100.00
27334;BME280;14817;57.104;-2.094;2023-03-16T01:59:01;99205.50;;;4.04;100.00
27334;BME280;14817;57.104;-2.094;2023-03-16T02:01:32;99208.03;;;4.05;100.00
27334;BME280;14817;57.104;-2.094;2023-03-16T02:04:11;99198.94;;;4.08;100.00
27334;BME280;14817;57.104;-2.094;2023-03-16T02:06:40;99185.72;;;4.08;100.00
27334;BME280;14817;57.104;-2.094;2023-03-16T02:09:08;99176.50;;;4.12;100.00
27334;BME280;14817;57.104;-2.094;2023-03-16T02:11:35;99174.66;;;4.13;100.00
27334;BME280;14817;57.104;-2.094;2023-03-16T02:14:11;99164.31;;;4.19;100.00
27334;BME280;14817;57.104;-2.094;2023-03-16T02:16:40;99156.38;;;4.19;100.00
27334;BME280;14817;57.104;-2.094;2023-03-16T02:19:11;99149.13;;;4.21;100.00
27334;BME280;14817;57.104;-2.094;2023-03-16T02:22:01;99147.16;;;4.23;100.00
27334;BME280;14817;57.104;-2.094;2023-03-16T02:24:29;99139.91;;;4.25;100.00
27334;BME280;14817;57.104;-2.094;2023-03-16T02:27:00;99123.19;;;4.25;100.00
27334;BME280;14817;57.104;-2.094;2023-03-16T02:29:51;99112.41;;;4.26;100.00
27334;BME280;14817;57.104;-2.094;2023-03-16T02:32:21;99106.13;;;4.27;100.00
27334;BME280;14817;57.104;-2.094;2023-03-16T02:34:49;99101.66;;;4.28;100.00
27334;BME280;14817;57.104;-2.094;2023-03-16T02:37:17;99092.44;;;4.32;100.00
27334;BME280;14817;57.104;-2.094;2023-03-16T02:39:44;99078.38;;;4.32;100.00
27334;BME280;14817;57.104;-2.094;2023-03-16T02:42:17;99078.75;;;4.37;100.00
27334;BME280;14817;57.104;-2.094;2023-03-16T02:44:49;99062.69;;;4.38;100.00
27334;BME280;14817;57.104;-2.094;2023-03-16T02:47:32;99065.50;;;4.37;100.00
27334;BME280;14817;57.104;-2.094;2023-03-16T02:49:59;99055.56;;;4.39;100.00
27334;BME280;14817;57.104;-2.094;2023-03-16T02:52:27;99054.44;;;4.41;100.00
27334;BME280;14817;57.104;-2.094;2023-03-16T02:54:54;99048.03;;;4.44;100.00
27334;BME280;14817;57.104;-2.094;2023-03-16T02:57:20;99048.84;;;4.44;100.00
27334;BME280;14817;57.104;-2.094;2023-03-16T02:59:47;99040.06;;;4.44;100.00
27334;BME280;14817;57.104;-2.094;2023-03-16T03:02:14;99042.72;;;4.44;100.00
27334;BME280;14817;57.104;-2.094;2023-03-16T03:04:42;99039.41;;;4.42;100.00
27334;BME280;14817;57.104;-2.094;2023-03-16T03:07:12;99035.47;;;4.46;100.00
27334;BME280;14817;57.104;-2.094;2023-03-16T03:09:57;99035.47;;;4.46;100.00
27334;BME280;14817;57.104;-2.094;2023-03-16T03:12:24;99025.69;;;4.46;100.00
27334;BME280;14817;57.104;-2.094;2023-03-16T03:14:51;99022.34;;;4.44;100.00
27334;BME280;14817;57.104;-2.094;2023-03-16T03:17:19;99019.56;;;4.46;100.00
27334;BME280;14817;57.104;-2.094;2023-03-16T03:19:46;99021.53;;;4.44;100.00
27334;BME280;14817;57.104;-2.094;2023-03-16T03:22:13;99011.28;;;4.49;100.00
27334;BME280;14817;57.104;-2.094;2023-03-16T03:24:44;99013.94;;;4.49;100.00
27334;BME280;14817;57.104;-2.094;2023-03-16T03:27:11;99011.97;;;4.51;100.00
27334;BME280;14817;57.104;-2.094;2023-03-16T03:29:38;99010.97;;;4.52;100.00
27334;BME280;14817;57.104;-2.094;2023-03-16T03:32:05;99010.69;;;4.55;100.00
27334;BME280;14817;57.104;-2.094;2023-03-16T03:34:32;99008.19;;;4.54;100.00
27334;BME280;14817;57.104;-2.094;2023-03-16T03:36:59;99003.03;;;4.52;100.00
27334;BME280;14817;57.104;-2.094;2023-03-16T03:39:27;98993.09;;;4.54;100.00
27334;BME280;14817;57.104;-2.094;2023-03-16T03:41:53;98998.41;;;4.54;100.00
27334;BME280;14817;57.104;-2.094;2023-03-16T03:44:22;99002.75;;;4.55;100.00
27334;BME280;14817;57.104;-2.094;2023-03-16T03:46:49;98996.44;;;4.56;100.00
27334;BME280;14817;57.104;-2.094;2023-03-16T03:49:17;98980.38;;;4.58;100.00
27334;BME280;14817;57.104;-2.094;2023-03-16T03:51:46;98974.75;;;4.61;100.00
27334;BME280;14817;57.104;-2.094;2023-03-16T03:54:16;98975.63;;;4.61;100.00
27334;BME280;14817;57.104;-2.094;2023-03-16T03:56:51;98971.81;;;4.64;100.00
27334;BME280;14817;57.104;-2.094;2023-03-16T03:59:18;98972.78;;;4.63;100.00
27334;BME280;14817;57.104;-2.094;2023-03-16T04:02:04;98957.75;;;4.63;100.00
27334;BME280;14817;57.104;-2.094;2023-03-16T04:04:40;98959.41;;;4.64;100.00
27334;BME280;14817;57.104;-2.094;2023-03-16T04:07:10;98950.63;;;4.64;100.00
27334;BME280;14817;57.104;-2.094;2023-03-16T04:09:38;98937.22;;;4.65;100.00
27334;BME280;14817;57.104;-2.094;2023-03-16T04:12:07;98942.53;;;4.65;100.00
27334;BME280;14817;57.104;-2.094;2023-03-16T04:14:33;98934.56;;;4.65;100.00
27334;BME280;14817;57.104;-2.094;2023-03-16T04:17:04;98931.72;;;4.67;100.00
27334;BME280;14817;57.104;-2.094;2023-03-16T04:19:34;98931.72;;;4.67;100.00
27334;BME280;14817;57.104;-2.094;2023-03-16T04:22:03;98931.31;;;4.72;100.00
27334;BME280;14817;57.104;-2.094;2023-03-16T04:24:30;98931.31;;;4.72;100.00
27334;BME280;14817;57.104;-2.094;2023-03-16T04:27:00;98921.34;;;4.74;100.00
27334;BME280;14817;57.104;-2.094;2023-03-16T04:29:28;98917.19;;;4.71;100.00
27334;BME280;14817;57.104;-2.094;2023-03-16T04:31:56;98912.88;;;4.70;100.00
27334;BME280;14817;57.104;-2.094;2023-03-16T04:34:25;98904.94;;;4.70;100.00
27334;BME280;14817;57.104;-2.094;2023-03-16T04:36:55;98898.63;;;4.71;100.00
27334;BME280;14817;57.104;-2.094;2023-03-16T04:39:22;98889.69;;;4.72;100.00
27334;BME280;14817;57.104;-2.094;2023-03-16T04:41:49;98884.06;;;4.75;100.00
27334;BME280;14817;57.104;-2.094;2023-03-16T04:44:20;98885.91;;;4.75;100.00
27334;BME280;14817;57.104;-2.094;2023-03-16T04:46:49;98868.31;;;4.74;100.00
27334;BME280;14817;57.104;-2.094;2023-03-16T04:49:16;98863.69;;;4.76;100.00
27334;BME280;14817;57.104;-2.094;2023-03-16T04:51:44;98850.59;;;4.74;100.00
27334;BME280;14817;57.104;-2.094;2023-03-16T04:54:14;98843.47;;;4.75;100.00
27334;BME280;14817;57.104;-2.094;2023-03-16T04:56:42;98835.38;;;4.76;100.00
27334;BME280;14817;57.104;-2.094;2023-03-16T04:59:29;98834.50;;;4.76;100.00
27334;BME280;14817;57.104;-2.094;2023-03-16T05:02:12;98838.16;;;4.75;100.00
27334;BME280;14817;57.104;-2.094;2023-03-16T05:04:39;98839.81;;;4.76;100.00
27334;BME280;14817;57.104;-2.094;2023-03-16T05:07:09;98837.00;;;4.77;100.00
27334;BME280;14817;57.104;-2.094;2023-03-16T05:09:40;98836.72;;;4.80;100.00
27334;BME280;14817;57.104;-2.094;2023-03-16T05:12:07;98833.22;;;4.80;100.00
27334;BME280;14817;57.104;-2.094;2023-03-16T05:14:35;98819.94;;;4.80;100.00
27334;BME280;14817;57.104;-2.094;2023-03-16T05:17:31;98831.22;;;4.82;100.00
27334;BME280;14817;57.104;-2.094;2023-03-16T05:19:58;98821.47;;;4.82;100.00
27334;BME280;14817;57.104;-2.094;2023-03-16T05:22:26;98822.97;;;4.85;100.00
27334;BME280;14817;57.104;-2.094;2023-03-16T05:25:10;98815.31;;;4.82;100.00
27334;BME280;14817;57.104;-2.094;2023-03-16T05:27:44;98808.03;;;4.84;100.00
27334;BME280;14817;57.104;-2.094;2023-03-16T05:30:17;98812.38;;;4.85;100.00
27334;BME280;14817;57.104;-2.094;2023-03-16T05:32:45;98793.13;;;4.83;100.00
27334;BME280;14817;57.104;-2.094;2023-03-16T05:35:12;98790.81;;;4.88;100.00
27334;BME280;14817;57.104;-2.094;2023-03-16T05:37:40;98783.00;;;4.86;100.00
27334;BME280;14817;57.104;-2.094;2023-03-16T05:40:13;98781.03;;;4.88;100.00
27334;BME280;14817;57.104;-2.094;2023-03-16T05:42:54;98782.72;;;4.89;100.00
27334;BME280;14817;57.104;-2.094;2023-03-16T05:45:22;98776.59;;;4.89;100.00
27334;BME280;14817;57.104;-2.094;2023-03-16T05:48:05;98761.66;;;4.88;100.00
27334;BME280;14817;57.104;-2.094;2023-03-16T05:50:37;98772.59;;;4.85;100.00
27334;BME280;14817;57.104;-2.094;2023-03-16T05:53:04;98766.78;;;4.89;100.00
27334;BME280;14817;57.104;-2.094;2023-03-16T05:55:31;98768.28;;;4.92;100.00
27334;BME280;14817;57.104;-2.094;2023-03-16T05:58:01;98764.66;;;4.93;100.00
27334;BME280;14817;57.104;-2.094;2023-03-16T06:00:33;98770.94;;;4.92;100.00
27334;BME280;14817;57.104;-2.094;2023-03-16T06:03:14;98769.13;;;4.93;100.00
27334;BME280;14817;57.104;-2.094;2023-03-16T06:05:42;98758.69;;;4.91;100.00
27334;BME280;14817;57.104;-2.094;2023-03-16T06:08:09;98753.53;;;4.89;100.00
27334;BME280;14817;57.104;-2.094;2023-03-16T06:10:40;98757.53;;;4.94;100.00
27334;BME280;14817;57.104;-2.094;2023-03-16T06:13:07;98756.19;;;4.89;100.00
27334;BME280;14817;57.104;-2.094;2023-03-16T06:15:34;98750.06;;;4.89;100.00
27334;BME280;14817;57.104;-2.094;2023-03-16T06:18:02;98746.41;;;4.90;100.00
27334;BME280;14817;57.104;-2.094;2023-03-16T06:20:29;98747.41;;;4.89;100.00
27334;BME280;14817;57.104;-2.094;2023-03-16T06:22:56;98753.84;;;4.86;100.00
27334;BME280;14817;57.104;-2.094;2023-03-16T06:25:23;98743.91;;;4.88;100.00
27334;BME280;14817;57.104;-2.094;2023-03-16T06:27:50;98743.22;;;4.86;100.00
27334;BME280;14817;57.104;-2.094;2023-03-16T06:30:18;98743.41;;;4.85;100.00
27334;BME280;14817;57.104;-2.094;2023-03-16T06:32:45;98726.34;;;4.87;100.00
27334;BME280;14817;57.104;-2.094;2023-03-16T06:35:13;98733.63;;;4.85;100.00
27334;BME280;14817;57.104;-2.094;2023-03-16T06:37:47;98724.66;;;4.86;100.00
27334;BME280;14817;57.104;-2.094;2023-03-16T06:40:32;98727.50;;;4.85;100.00
27334;BME280;14817;57.104;-2.094;2023-03-16T06:42:59;98724.84;;;4.85;100.00
27334;BME280;14817;57.104;-2.094;2023-03-16T06:45:27;98718.53;;;4.86;100.00
27334;BME280;14817;57.104;-2.094;2023-03-16T06:47:55;98718.53;;;4.86;100.00
27334;BME280;14817;57.104;-2.094;2023-03-16T06:50:22;98713.22;;;4.86;100.00
27334;BME280;14817;57.104;-2.094;2023-03-16T06:52:49;98708.94;;;4.85;100.00
27334;BME280;14817;57.104;-2.094;2023-03-16T06:55:17;98709.28;;;4.90;100.00
27334;BME280;14817;57.104;-2.094;2023-03-16T06:57:46;98701.47;;;4.88;100.00
27334;BME280;14817;57.104;-2.094;2023-03-16T07:00:15;98707.28;;;4.92;100.00
27334;BME280;14817;57.104;-2.094;2023-03-16T07:02:42;98703.81;;;4.91;100.00
27334;BME280;14817;57.104;-2.094;2023-03-16T07:05:11;98714.41;;;4.91;100.00
27334;BME280;14817;57.104;-2.094;2023-03-16T07:07:42;98711.91;;;4.90;100.00
27334;BME280;14817;57.104;-2.094;2023-03-16T07:10:12;98705.47;;;4.93;100.00
27334;BME280;14817;57.104;-2.094;2023-03-16T07:12:39;98703.81;;;4.91;100.00
27334;BME280;14817;57.104;-2.094;2023-03-16T07:15:08;98694.38;;;4.89;100.00
27334;BME280;14817;57.104;-2.094;2023-03-16T07:17:35;98693.88;;;4.94;100.00
27334;BME280;14817;57.104;-2.094;2023-03-16T07:20:04;98693.72;;;4.95;100.00
27334;BME280;14817;57.104;-2.094;2023-03-16T07:22:36;98683.78;;;4.97;100.00
27334;BME280;14817;57.104;-2.094;2023-03-16T07:25:05;98689.09;;;4.97;100.00
27334;BME280;14817;57.104;-2.094;2023-03-16T07:27:33;98692.72;;;4.96;100.00
27334;BME280;14817;57.104;-2.094;2023-03-16T07:30:05;98690.06;;;4.96;100.00
27334;BME280;14817;57.104;-2.094;2023-03-16T07:32:35;98691.88;;;4.96;100.00
27334;BME280;14817;57.104;-2.094;2023-03-16T07:35:03;98690.88;;;4.97;100.00
27334;BME280;14817;57.104;-2.094;2023-03-16T07:37:31;98695.38;;;4.96;100.00
27334;BME280;14817;57.104;-2.094;2023-03-16T07:40:03;98694.06;;;5.00;100.00
27334;BME280;14817;57.104;-2.094;2023-03-16T07:42:32;98695.53;;;4.95;100.00
27334;BME280;14817;57.104;-2.094;2023-03-16T07:45:07;98687.06;;;4.99;100.00
27334;BME280;14817;57.104;-2.094;2023-03-16T07:47:34;98679.78;;;5.01;100.00
27334;BME280;14817;57.104;-2.094;2023-03-16T07:50:20;98676.47;;;4.99;100.00
27334;BME280;14817;57.104;-2.094;2023-03-16T07:52:49;98681.47;;;5.02;100.00
27334;BME280;14817;57.104;-2.094;2023-03-16T07:55:16;98677.50;;;5.06;100.00
27334;BME280;14817;57.104;-2.094;2023-03-16T07:57:44;98680.44;;;5.03;100.00
27334;BME280;14817;57.104;-2.094;2023-03-16T08:00:17;98673.00;;;5.07;100.00
27334;BME280;14817;57.104;-2.094;2023-03-16T08:02:49;98670.84;;;5.02;100.00
27334;BME280;14817;57.104;-2.094;2023-03-16T08:05:17;98664.72;;;5.02;100.00
27334;BME280;14817;57.104;-2.094;2023-03-16T08:07:48;98660.91;;;5.04;100.00
27334;BME280;14817;57.104;-2.094;2023-03-16T08:10:19;98663.22;;;5.07;100.00
27334;BME280;14817;57.104;-2.094;2023-03-16T08:13:04;98662.09;;;5.10;100.00
27334;BME280;14817;57.104;-2.094;2023-03-16T08:15:33;98658.09;;;5.14;100.00
27334;BME280;14817;57.104;-2.094;2023-03-16T08:18:08;98662.25;;;5.17;100.00
27334;BME280;14817;57.104;-2.094;2023-03-16T08:20:35;98657.94;;;5.16;100.00
27334;BME280;14817;57.104;-2.094;2023-03-16T08:23:02;98649.66;;;5.19;100.00
27334;BME280;14817;57.104;-2.094;2023-03-16T08:25:36;98649.31;;;5.22;100.00
27334;BME280;14817;57.104;-2.094;2023-03-16T08:28:09;98642.69;;;5.18;100.00
27334;BME280;14817;57.104;-2.094;2023-03-16T08:30:43;98636.72;;;5.24;100.00
27334;BME280;14817;57.104;-2.094;2023-03-16T08:33:20;98633.25;;;5.31;100.00
27334;BME280;14817;57.104;-2.094;2023-03-16T08:35:50;98627.75;;;5.33;100.00
27334;BME280;14817;57.104;-2.094;2023-03-16T08:38:17;98626.78;;;5.34;100.00
27334;BME280;14817;57.104;-2.094;2023-03-16T08:40:45;98621.63;;;5.41;100.00
27334;BME280;14817;57.104;-2.094;2023-03-16T08:43:17;98621.47;;;5.50;100.00
27334;BME280;14817;57.104;-2.094;2023-03-16T08:45:45;98618.81;;;5.42;100.00
27334;BME280;14817;57.104;-2.094;2023-03-16T08:48:14;98618.16;;;5.48;100.00
27334;BME280;14817;57.104;-2.094;2023-03-16T08:50:44;98621.47;;;5.50;100.00
27334;BME280;14817;57.104;-2.094;2023-03-16T08:53:12;98613.81;;;5.56;100.00
27334;BME280;14817;57.104;-2.094;2023-03-16T08:55:40;98607.69;;;5.55;100.00
27334;BME280;14817;57.104;-2.094;2023-03-16T08:58:08;98600.69;;;5.54;100.00
27334;BME280;14817;57.104;-2.094;2023-03-16T09:00:36;98599.22;;;5.51;100.00
27334;BME280;14817;57.104;-2.094;2023-03-16T09:03:04;98593.91;;;5.60;100.00
27334;BME280;14817;57.104;-2.094;2023-03-16T09:05:31;98596.22;;;5.55;100.00
27334;BME280;14817;57.104;-2.094;2023-03-16T09:07:58;98589.41;;;5.52;100.00
27334;BME280;14817;57.104;-2.094;2023-03-16T09:10:25;98588.25;;;5.55;100.00
27334;BME280;14817;57.104;-2.094;2023-03-16T09:12:53;98585.28;;;5.58;100.00
27334;BME280;14817;57.104;-2.094;2023-03-16T09:15:20;98586.91;;;5.67;100.00
27334;BME280;14817;57.104;-2.094;2023-03-16T09:17:47;98581.59;;;5.75;100.00
27334;BME280;14817;57.104;-2.094;2023-03-16T09:20:16;98577.44;;;5.81;100.00
27334;BME280;14817;57.104;-2.094;2023-03-16T09:22:53;98581.09;;;5.71;100.00
27334;BME280;14817;57.104;-2.094;2023-03-16T09:25:21;98580.91;;;5.81;100.00
27334;BME280;14817;57.104;-2.094;2023-03-16T09:27:48;98574.56;;;5.90;100.00
27334;BME280;14817;57.104;-2.094;2023-03-16T09:30:14;98577.91;;;6.01;100.00
27334;BME280;14817;57.104;-2.094;2023-03-16T09:32:42;98577.91;;;6.01;100.00
27334;BME280;14817;57.104;-2.094;2023-03-16T09:35:10;98572.72;;;6.07;100.00
27334;BME280;14817;57.104;-2.094;2023-03-16T09:37:37;98564.69;;;6.24;100.00
27334;BME280;14817;57.104;-2.094;2023-03-16T09:40:23;98558.56;;;6.23;100.00
27334;BME280;14817;57.104;-2.094;2023-03-16T09:43:04;98554.00;;;6.40;100.00
27334;BME280;14817;57.104;-2.094;2023-03-16T09:45:55;98553.53;;;6.28;100.00
27334;BME280;14817;57.104;-2.094;2023-03-16T09:48:26;98548.19;;;6.37;100.00
27334;BME280;14817;57.104;-2.094;2023-03-16T09:50:55;98544.88;;;6.34;100.00
27334;BME280;14817;57.104;-2.094;2023-03-16T09:53:29;98544.22;;;6.32;100.00
27334;BME280;14817;57.104;-2.094;2023-03-16T09:58:24;98534.22;;;6.34;100.00
27334;BME280;14817;57.104;-2.094;2023-03-16T10:03:57;98538.53;;;6.36;100.00
27334;BME280;14817;57.104;-2.094;2023-03-16T10:06:27;98543.72;;;6.29;100.00
27334;BME280;14817;57.104;-2.094;2023-03-16T10:11:34;98536.72;;;6.36;100.00
27334;BME280;14817;57.104;-2.094;2023-03-16T10:14:12;98522.09;;;6.40;100.00
27334;BME280;14817;57.104;-2.094;2023-03-16T10:17:08;98523.03;;;6.47;100.00
27334;BME280;14817;57.104;-2.094;2023-03-16T10:19:49;98514.03;;;6.48;100.00
27334;BME280;14817;57.104;-2.094;2023-03-16T10:22:22;98517.66;;;6.56;100.00
27334;BME280;14817;57.104;-2.094;2023-03-16T10:25:24;98510.50;;;6.56;100.00
27334;BME280;14817;57.104;-2.094;2023-03-16T10:27:52;98521.84;;;6.50;100.00
27334;BME280;14817;57.104;-2.094;2023-03-16T10:32:50;98509.91;;;6.46;100.00
27334;BME280;14817;57.104;-2.094;2023-03-16T10:35:45;98518.13;;;6.36;100.00
27334;BME280;14817;57.104;-2.094;2023-03-16T10:38:42;98509.00;;;6.30;100.00
27334;BME280;14817;57.104;-2.094;2023-03-16T10:43:58;98513.38;;;6.23;100.00
27334;BME280;14817;57.104;-2.094;2023-03-16T10:46:37;98514.88;;;6.18;100.00
27334;BME280;14817;57.104;-2.094;2023-03-16T10:49:16;98509.22;;;6.21;100.00
27334;BME280;14817;57.104;-2.094;2023-03-16T10:51:43;98506.50;;;6.29;100.00
27334;BME280;14817;57.104;-2.094;2023-03-16T10:54:25;98505.56;;;6.22;100.00
27334;BME280;14817;57.104;-2.094;2023-03-16T10:56:53;98503.69;;;6.30;100.00
27334;BME280;14817;57.104;-2.094;2023-03-16T10:59:34;98495.88;;;6.29;100.00
27334;BME280;14817;57.104;-2.094;2023-03-16T11:02:10;98496.06;;;6.27;100.00
27334;BME280;14817;57.104;-2.094;2023-03-16T11:04:40;98486.25;;;6.28;100.00
27334;BME280;14817;57.104;-2.094;2023-03-16T11:07:08;98486.25;;;6.28;100.00
27334;BME280;14817;57.104;-2.094;2023-03-16T11:09:41;98494.75;;;6.23;100.00
27334;BME280;14817;57.104;-2.094;2023-03-16T11:12:23;98489.75;;;6.28;100.00
27334;BME280;14817;57.104;-2.094;2023-03-16T11:14:51;98484.78;;;6.25;100.00
27334;BME280;14817;57.104;-2.094;2023-03-16T11:17:33;98479.09;;;6.28;100.00
27334;BME280;14817;57.104;-2.094;2023-03-16T11:20:05;98474.81;;;6.27;100.00
27334;BME280;14817;57.104;-2.094;2023-03-16T11:22:40;98474.44;;;6.30;100.00
27334;BME280;14817;57.104;-2.094;2023-03-16T11:25:12;98466.97;;;6.34;100.00
27334;BME280;14817;57.104;-2.094;2023-03-16T11:27:46;98463.44;;;6.33;100.00
27334;BME280;14817;57.104;-2.094;2023-03-16T11:30:45;98461.97;;;6.31;100.00
27334;BME280;14817;57.104;-2.094;2023-03-16T11:33:14;98466.09;;;6.33;100.00
27334;BME280;14817;57.104;-2.094;2023-03-16T11:35:49;98459.97;;;6.33;100.00
27334;BME280;14817;57.104;-2.094;2023-03-16T11:38:40;98461.44;;;6.36;100.00
27334;BME280;14817;57.104;-2.094;2023-03-16T11:41:14;98459.44;;;6.38;100.00
27334;BME280;14817;57.104;-2.094;2023-03-16T11:43:54;98452.22;;;6.46;100.00
27334;BME280;14817;57.104;-2.094;2023-03-16T11:57:04;98435.56;;;6.52;100.00
27334;BME280;14817;57.104;-2.094;2023-03-16T12:11:21;98430.13;;;6.46;100.00
27334;BME280;14817;57.104;-2.094;2023-03-16T12:19:20;98419.72;;;6.59;100.00
27334;BME280;14817;57.104;-2.094;2023-03-16T12:21:58;98414.22;;;6.61;100.00
27334;BME280;14817;57.104;-2.094;2023-03-16T12:24:30;98408.44;;;6.57;100.00
27334;BME280;14817;57.104;-2.094;2023-03-16T12:27:00;98394.63;;;6.62;100.00
27334;BME280;14817;57.104;-2.094;2023-03-16T12:32:25;98408.63;;;6.56;100.00
27334;BME280;14817;57.104;-2.094;2023-03-16T12:35:05;98406.53;;;6.51;100.00
27334;BME280;14817;57.104;-2.094;2023-03-16T12:37:40;98400.28;;;6.59;100.00
27334;BME280;14817;57.104;-2.094;2023-03-16T12:40:20;98410.84;;;6.67;100.00
27334;BME280;14817;57.104;-2.094;2023-03-16T12:46:10;98407.38;;;6.66;100.00
27334;BME280;14817;57.104;-2.094;2023-03-16T12:48:43;98404.09;;;6.79;100.00
27334;BME280;14817;57.104;-2.094;2023-03-16T12:51:12;98395.03;;;6.88;100.00
27334;BME280;14817;57.104;-2.094;2023-03-16T12:53:53;98405.69;;;7.03;100.00
27334;BME280;14817;57.104;-2.094;2023-03-16T12:56:47;98397.09;;;7.16;100.00
27334;BME280;14817;57.104;-2.094;2023-03-16T12:59:17;98399.19;;;7.21;100.00
27334;BME280;14817;57.104;-2.094;2023-03-16T13:01:48;98404.34;;;7.22;100.00
27334;BME280;14817;57.104;-2.094;2023-03-16T13:04:19;98393.88;;;7.21;100.00
27334;BME280;14817;57.104;-2.094;2023-03-16T13:06:49;98399.19;;;7.35;100.00
27334;BME280;14817;57.104;-2.094;2023-03-16T13:09:25;98402.66;;;7.36;100.00
27334;BME280;14817;57.104;-2.094;2023-03-16T13:11:53;98406.28;;;7.43;100.00
27334;BME280;14817;57.104;-2.094;2023-03-16T13:14:38;98407.53;;;7.62;100.00
27334;BME280;14817;57.104;-2.094;2023-03-16T13:19:43;98411.91;;;7.70;100.00
27334;BME280;14817;57.104;-2.094;2023-03-16T13:27:25;98404.75;;;7.85;100.00
27334;BME280;14817;57.104;-2.094;2023-03-16T13:29:57;98404.47;;;7.80;100.00
27334;BME280;14817;57.104;-2.094;2023-03-16T13:32:28;98399.50;;;7.92;100.00
27334;BME280;14817;57.104;-2.094;2023-03-16T13:34:58;98397.00;;;7.90;100.00
27334;BME280;14817;57.104;-2.094;2023-03-16T13:37:27;98395.72;;;7.86;100.00
27334;BME280;14817;57.104;-2.094;2023-03-16T13:40:00;98384.06;;;7.87;100.00
27334;BME280;14817;57.104;-2.094;2023-03-16T13:42:32;98379.75;;;7.86;100.00
27334;BME280;14817;57.104;-2.094;2023-03-16T13:45:12;98377.72;;;7.88;100.00
27334;BME280;14817;57.104;-2.094;2023-03-16T13:47:43;98375.53;;;7.77;100.00
27334;BME280;14817;57.104;-2.094;2023-03-16T13:50:12;98378.47;;;7.82;100.00
27334;BME280;14817;57.104;-2.094;2023-03-16T13:52:40;98374.81;;;7.83;100.00
27334;BME280;14817;57.104;-2.094;2023-03-16T13:55:16;98365.91;;;7.97;100.00
27334;BME280;14817;57.104;-2.094;2023-03-16T13:57:45;98373.66;;;7.92;100.00
27334;BME280;14817;57.104;-2.094;2023-03-16T14:00:22;98360.97;;;7.94;100.00
27334;BME280;14817;57.104;-2.094;2023-03-16T14:02:55;98356.34;;;8.03;100.00
27334;BME280;14817;57.104;-2.094;2023-03-16T14:05:24;98355.06;;;7.99;100.00
27334;BME280;14817;57.104;-2.094;2023-03-16T14:07:53;98360.59;;;7.97;100.00
27334;BME280;14817;57.104;-2.094;2023-03-16T14:10:21;98347.91;;;8.00;100.00
27334;BME280;14817;57.104;-2.094;2023-03-16T14:13:05;98355.25;;;7.97;100.00